Terminal Aerodrome Forecast
Issued by NWS Louisville, KY

Home | Current Version | Previous Version | Text Only | Print | Product List | Glossary On
Versions: 1 2 3 4 5 6 7 8 9 10 11 12 13
000
FTUS43 KLMK 272323
TAFBWG
TAF
KBWG 272323Z 2800/2824 VRB03KT P6SM SCT120 BKN250
     FM280800 00000KT 5SM BR FEW250
     FM281300 VRB04KT P6SM FEW250
     FM281800 10006KT P6SM SCT040 SCT250=

USA.gov is the U.S. government's official web portal to all federal, state and local government web resources and services.